sensor_id;sensor_type;location;lat;lon;timestamp;pressure;altitude;pressure_sealevel;temperature;humidity
78317;BME280;67572;50.930;18.276;2024-02-14T00:02:55;99572.53;;;2.27;89.87
78317;BME280;67572;50.930;18.276;2024-02-14T00:05:58;99574.56;;;2.16;90.23
78317;BME280;67572;50.930;18.276;2024-02-14T00:09:02;99571.56;;;1.99;90.47
78317;BME280;67572;50.930;18.276;2024-02-14T00:12:06;99575.31;;;1.88;90.02
78317;BME280;67572;50.930;18.276;2024-02-14T00:15:12;99571.72;;;1.92;90.56
78317;BME280;67572;50.930;18.276;2024-02-14T00:18:15;99571.25;;;1.77;90.37
78317;BME280;67572;50.930;18.276;2024-02-14T00:21:19;99571.31;;;1.75;90.55
78317;BME280;67572;50.930;18.276;2024-02-14T00:24:23;99571.63;;;1.95;90.26
78317;BME280;67572;50.930;18.276;2024-02-14T00:27:28;99571.13;;;1.81;89.72
78317;BME280;67572;50.930;18.276;2024-02-14T00:30:33;99581.69;;;1.78;89.11
78317;BME280;67572;50.930;18.276;2024-02-14T00:33:47;99575.94;;;1.98;90.23
78317;BME280;67572;50.930;18.276;2024-02-14T00:36:51;99576.84;;;1.97;89.08
78317;BME280;67572;50.930;18.276;2024-02-14T00:39:55;99581.50;;;1.86;89.23
78317;BME280;67572;50.930;18.276;2024-02-14T00:42:59;99580.63;;;1.85;90.63
78317;BME280;67572;50.930;18.276;2024-02-14T00:46:04;99579.66;;;1.89;90.64
78317;BME280;67572;50.930;18.276;2024-02-14T00:49:08;99579.88;;;1.80;90.37
78317;BME280;67572;50.930;18.276;2024-02-14T00:52:12;99578.03;;;1.85;89.66
78317;BME280;67572;50.930;18.276;2024-02-14T00:55:16;99582.44;;;1.83;89.73
78317;BME280;67572;50.930;18.276;2024-02-14T00:58:19;99574.34;;;1.58;89.94
78317;BME280;67572;50.930;18.276;2024-02-14T01:01:24;99571.50;;;1.67;90.47
78317;BME280;67572;50.930;18.276;2024-02-14T01:04:27;99574.75;;;1.77;89.99
78317;BME280;67572;50.930;18.276;2024-02-14T01:07:31;99569.94;;;1.60;90.23
78317;BME280;67572;50.930;18.276;2024-02-14T01:10:34;99563.50;;;1.72;90.68
78317;BME280;67572;50.930;18.276;2024-02-14T01:13:37;99565.94;;;1.46;90.60
78317;BME280;67572;50.930;18.276;2024-02-14T01:16:45;99563.84;;;1.60;91.40
78317;BME280;67572;50.930;18.276;2024-02-14T01:19:50;99560.47;;;1.55;90.39
78317;BME280;67572;50.930;18.276;2024-02-14T01:22:53;99558.75;;;1.54;90.27
78317;BME280;67572;50.930;18.276;2024-02-14T01:25:59;99557.75;;;1.58;90.79
78317;BME280;67572;50.930;18.276;2024-02-14T01:29:04;99556.84;;;1.60;89.93
78317;BME280;67572;50.930;18.276;2024-02-14T01:32:09;99559.56;;;1.56;89.91
78317;BME280;67572;50.930;18.276;2024-02-14T01:35:12;99563.84;;;1.60;89.98
78317;BME280;67572;50.930;18.276;2024-02-14T01:38:16;99560.88;;;1.38;90.19
78317;BME280;67572;50.930;18.276;2024-02-14T01:41:19;99559.97;;;1.39;90.13
78317;BME280;67572;50.930;18.276;2024-02-14T01:44:24;99561.81;;;1.35;89.86
78317;BME280;67572;50.930;18.276;2024-02-14T01:47:29;99560.66;;;1.47;89.44
78317;BME280;67572;50.930;18.276;2024-02-14T01:50:35;99561.13;;;1.27;89.79
78317;BME280;67572;50.930;18.276;2024-02-14T01:53:39;99558.38;;;1.33;89.25
78317;BME280;67572;50.930;18.276;2024-02-14T01:56:43;99562.56;;;1.41;89.70
78317;BME280;67572;50.930;18.276;2024-02-14T01:59:48;99560.59;;;1.15;89.50
78317;BME280;67572;50.930;18.276;2024-02-14T02:02:54;99558.88;;;1.12;89.85
78317;BME280;67572;50.930;18.276;2024-02-14T02:05:57;99558.69;;;1.20;89.97
78317;BME280;67572;50.930;18.276;2024-02-14T02:09:01;99561.53;;;1.10;90.19
78317;BME280;67572;50.930;18.276;2024-02-14T02:12:05;99558.31;;;0.98;90.76
78317;BME280;67572;50.930;18.276;2024-02-14T02:15:30;99557.97;;;1.13;90.93
78317;BME280;67572;50.930;18.276;2024-02-14T02:18:55;99566.94;;;1.03;91.45
78317;BME280;67572;50.930;18.276;2024-02-14T02:22:18;99568.41;;;1.16;91.39
78317;BME280;67572;50.930;18.276;2024-02-14T02:25:43;99560.34;;;1.24;90.74
78317;BME280;67572;50.930;18.276;2024-02-14T02:29:06;99560.91;;;1.01;91.12
78317;BME280;67572;50.930;18.276;2024-02-14T02:32:10;99565.31;;;0.99;91.16
78317;BME280;67572;50.930;18.276;2024-02-14T02:35:13;99571.00;;;1.16;91.62
78317;BME280;67572;50.930;18.276;2024-02-14T02:38:37;99561.00;;;0.96;91.32
78317;BME280;67572;50.930;18.276;2024-02-14T02:42:01;99566.19;;;0.99;91.13
78317;BME280;67572;50.930;18.276;2024-02-14T02:45:31;99572.44;;;0.91;91.17
78317;BME280;67572;50.930;18.276;2024-02-14T02:48:54;99583.13;;;0.81;91.80
78317;BME280;67572;50.930;18.276;2024-02-14T02:51:59;99573.03;;;1.03;91.44
78317;BME280;67572;50.930;18.276;2024-02-14T02:55:16;99577.47;;;1.01;91.75
78317;BME280;67572;50.930;18.276;2024-02-14T02:58:23;99584.75;;;0.87;92.02
78317;BME280;67572;50.930;18.276;2024-02-14T03:01:26;99579.91;;;0.70;91.84
78317;BME280;67572;50.930;18.276;2024-02-14T03:04:50;99581.81;;;1.02;92.27
78317;BME280;67572;50.930;18.276;2024-02-14T03:08:15;99580.16;;;0.98;91.57
78317;BME280;67572;50.930;18.276;2024-02-14T03:11:38;99582.09;;;0.89;90.70
78317;BME280;67572;50.930;18.276;2024-02-14T03:15:05;99574.81;;;0.64;91.01
78317;BME280;67572;50.930;18.276;2024-02-14T03:18:12;99586.41;;;0.93;90.81
78317;BME280;67572;50.930;18.276;2024-02-14T03:21:16;99582.41;;;0.75;91.01
78317;BME280;67572;50.930;18.276;2024-02-14T03:24:20;99591.09;;;0.77;90.83
78317;BME280;67572;50.930;18.276;2024-02-14T03:27:23;99593.00;;;0.70;91.11
78317;BME280;67572;50.930;18.276;2024-02-14T03:30:30;99583.59;;;0.62;90.97
78317;BME280;67572;50.930;18.276;2024-02-14T03:33:34;99588.66;;;0.69;91.81
78317;BME280;67572;50.930;18.276;2024-02-14T03:36:38;99589.22;;;0.83;91.96
78317;BME280;67572;50.930;18.276;2024-02-14T03:39:41;99590.22;;;0.78;92.22
78317;BME280;67572;50.930;18.276;2024-02-14T03:42:44;99595.84;;;0.58;92.29
78317;BME280;67572;50.930;18.276;2024-02-14T03:45:49;99598.84;;;0.81;92.67
78317;BME280;67572;50.930;18.276;2024-02-14T03:48:53;99593.38;;;0.92;92.75
78317;BME280;67572;50.930;18.276;2024-02-14T03:51:57;99603.81;;;0.94;93.04
78317;BME280;67572;50.930;18.276;2024-02-14T03:55:01;99604.75;;;0.91;92.63
78317;BME280;67572;50.930;18.276;2024-02-14T03:58:07;99596.13;;;0.86;92.97
78317;BME280;67572;50.930;18.276;2024-02-14T04:01:12;99594.06;;;1.00;92.88
78317;BME280;67572;50.930;18.276;2024-02-14T04:04:16;99597.03;;;0.85;92.93
78317;BME280;67572;50.930;18.276;2024-02-14T04:07:19;99598.28;;;1.07;92.48
78317;BME280;67572;50.930;18.276;2024-02-14T04:10:24;99604.63;;;0.96;92.36
78317;BME280;67572;50.930;18.276;2024-02-14T04:13:27;99598.28;;;1.07;92.46
78317;BME280;67572;50.930;18.276;2024-02-14T04:16:32;99601.59;;;1.16;92.91
78317;BME280;67572;50.930;18.276;2024-02-14T04:19:35;99597.06;;;1.22;92.42
78317;BME280;67572;50.930;18.276;2024-02-14T04:22:38;99604.03;;;1.23;91.45
78317;BME280;67572;50.930;18.276;2024-02-14T04:25:43;99597.38;;;1.08;91.33
78317;BME280;67572;50.930;18.276;2024-02-14T04:28:46;99596.97;;;1.25;91.32
78317;BME280;67572;50.930;18.276;2024-02-14T04:31:51;99603.16;;;1.23;92.25
78317;BME280;67572;50.930;18.276;2024-02-14T04:34:54;99604.25;;;1.50;92.35
78317;BME280;67572;50.930;18.276;2024-02-14T04:37:59;99601.22;;;1.31;91.54
78317;BME280;67572;50.930;18.276;2024-02-14T04:41:03;99599.00;;;1.13;90.84
78317;BME280;67572;50.930;18.276;2024-02-14T04:44:06;99589.75;;;0.98;90.66
78317;BME280;67572;50.930;18.276;2024-02-14T04:47:11;99602.66;;;1.07;91.00
78317;BME280;67572;50.930;18.276;2024-02-14T04:50:15;99595.72;;;1.06;91.23
78317;BME280;67572;50.930;18.276;2024-02-14T04:53:18;99600.53;;;1.23;91.21
78317;BME280;67572;50.930;18.276;2024-02-14T04:56:21;99602.31;;;1.21;91.69
78317;BME280;67572;50.930;18.276;2024-02-14T04:59:25;99606.28;;;1.38;91.89
78317;BME280;67572;50.930;18.276;2024-02-14T05:02:30;99594.75;;;1.46;91.27
78317;BME280;67572;50.930;18.276;2024-02-14T05:05:33;99591.94;;;1.18;89.92
78317;BME280;67572;50.930;18.276;2024-02-14T05:08:37;99602.53;;;1.11;89.82
78317;BME280;67572;50.930;18.276;2024-02-14T05:11:40;99607.91;;;1.05;90.00
78317;BME280;67572;50.930;18.276;2024-02-14T05:14:44;99612.78;;;1.22;91.36
78317;BME280;67572;50.930;18.276;2024-02-14T05:17:49;99616.31;;;1.21;91.82
78317;BME280;67572;50.930;18.276;2024-02-14T05:20:53;99612.59;;;1.30;92.68
78317;BME280;67572;50.930;18.276;2024-02-14T05:23:56;99616.31;;;1.21;92.26
78317;BME280;67572;50.930;18.276;2024-02-14T05:26:59;99615.00;;;1.39;92.38
78317;BME280;67572;50.930;18.276;2024-02-14T05:30:04;99606.41;;;1.32;92.09
78317;BME280;67572;50.930;18.276;2024-02-14T05:33:15;99607.25;;;1.34;91.64
78317;BME280;67572;50.930;18.276;2024-02-14T05:36:20;99595.63;;;1.46;90.99
78317;BME280;67572;50.930;18.276;2024-02-14T05:39:27;99594.84;;;1.41;91.17
78317;BME280;67572;50.930;18.276;2024-02-14T05:42:30;99595.16;;;1.29;91.88
78317;BME280;67572;50.930;18.276;2024-02-14T05:45:33;99598.47;;;1.35;91.24
78317;BME280;67572;50.930;18.276;2024-02-14T05:48:39;99601.75;;;1.45;91.82
78317;BME280;67572;50.930;18.276;2024-02-14T05:51:44;99603.34;;;1.52;91.67
78317;BME280;67572;50.930;18.276;2024-02-14T05:54:47;99599.53;;;1.28;91.16
78317;BME280;67572;50.930;18.276;2024-02-14T05:57:50;99596.56;;;1.44;89.96
78317;BME280;67572;50.930;18.276;2024-02-14T06:00:54;99593.41;;;1.28;88.78
78317;BME280;67572;50.930;18.276;2024-02-14T06:03:59;99598.16;;;1.49;88.30
78317;BME280;67572;50.930;18.276;2024-02-14T06:07:03;99588.94;;;1.69;87.01
78317;BME280;67572;50.930;18.276;2024-02-14T06:10:09;99598.56;;;1.32;86.33
78317;BME280;67572;50.930;18.276;2024-02-14T06:13:13;99602.75;;;1.39;85.99
78317;BME280;67572;50.930;18.276;2024-02-14T06:16:16;99594.19;;;1.33;87.13
78317;BME280;67572;50.930;18.276;2024-02-14T06:19:21;99590.06;;;1.58;87.15
78317;BME280;67572;50.930;18.276;2024-02-14T06:22:24;99605.78;;;1.58;87.30
78317;BME280;67572;50.930;18.276;2024-02-14T06:25:28;99604.09;;;1.56;86.84
78317;BME280;67572;50.930;18.276;2024-02-14T06:28:35;99604.63;;;1.70;86.77
78317;BME280;67572;50.930;18.276;2024-02-14T06:31:38;99608.81;;;1.77;86.90
78317;BME280;67572;50.930;18.276;2024-02-14T06:34:43;99610.28;;;1.53;86.25
78317;BME280;67572;50.930;18.276;2024-02-14T06:37:46;99604.88;;;1.61;86.93
78317;BME280;67572;50.930;18.276;2024-02-14T06:41:04;99609.09;;;1.66;85.90
78317;BME280;67572;50.930;18.276;2024-02-14T06:44:07;99611.81;;;1.96;85.58
78317;BME280;67572;50.930;18.276;2024-02-14T06:47:10;99603.53;;;1.79;85.92
78317;BME280;67572;50.930;18.276;2024-02-14T06:50:15;99611.72;;;2.01;85.10
78317;BME280;67572;50.930;18.276;2024-02-14T06:53:18;99618.41;;;1.78;84.65
78317;BME280;67572;50.930;18.276;2024-02-14T06:56:21;99618.81;;;1.95;84.86
78317;BME280;67572;50.930;18.276;2024-02-14T06:59:25;99614.03;;;2.13;84.68
78317;BME280;67572;50.930;18.276;2024-02-14T07:02:28;99620.56;;;1.97;84.96
78317;BME280;67572;50.930;18.276;2024-02-14T07:05:33;99625.69;;;2.01;84.76
78317;BME280;67572;50.930;18.276;2024-02-14T07:08:37;99625.84;;;1.95;85.71
78317;BME280;67572;50.930;18.276;2024-02-14T07:11:40;99624.25;;;1.88;86.45
78317;BME280;67572;50.930;18.276;2024-02-14T07:14:43;99622.19;;;2.01;85.56
78317;BME280;67572;50.930;18.276;2024-02-14T07:17:47;99621.84;;;1.80;86.92
78317;BME280;67572;50.930;18.276;2024-02-14T07:20:52;99629.72;;;2.14;86.67
78317;BME280;67572;50.930;18.276;2024-02-14T07:23:55;99623.34;;;2.23;87.07
78317;BME280;67572;50.930;18.276;2024-02-14T07:26:59;99633.75;;;2.26;87.22
78317;BME280;67572;50.930;18.276;2024-02-14T07:30:03;99618.91;;;2.56;86.20
78317;BME280;67572;50.930;18.276;2024-02-14T07:33:08;99629.56;;;2.52;86.54
78317;BME280;67572;50.930;18.276;2024-02-14T07:36:13;99621.06;;;2.43;86.66
78317;BME280;67572;50.930;18.276;2024-02-14T07:39:16;99623.50;;;2.79;86.55
78317;BME280;67572;50.930;18.276;2024-02-14T07:42:20;99625.34;;;2.77;86.31
78317;BME280;67572;50.930;18.276;2024-02-14T07:45:24;99624.06;;;2.90;85.78
78317;BME280;67572;50.930;18.276;2024-02-14T07:48:27;99621.91;;;3.04;86.15
78317;BME280;67572;50.930;18.276;2024-02-14T07:51:32;99619.78;;;3.16;85.33
78317;BME280;67572;50.930;18.276;2024-02-14T07:54:38;99621.31;;;3.51;84.29
78317;BME280;67572;50.930;18.276;2024-02-14T07:57:42;99619.25;;;3.60;84.52
78317;BME280;67572;50.930;18.276;2024-02-14T08:00:45;99618.75;;;3.76;82.85
78317;BME280;67572;50.930;18.276;2024-02-14T08:03:49;99621.31;;;3.77;82.53
78317;BME280;67572;50.930;18.276;2024-02-14T08:06:53;99620.19;;;3.84;82.75
78317;BME280;67572;50.930;18.276;2024-02-14T08:09:57;99627.38;;;4.06;81.90
78317;BME280;67572;50.930;18.276;2024-02-14T08:13:01;99629.78;;;3.87;81.79
78317;BME280;67572;50.930;18.276;2024-02-14T08:16:06;99630.31;;;4.22;81.09
78317;BME280;67572;50.930;18.276;2024-02-14T08:19:12;99629.78;;;4.37;80.67
78317;BME280;67572;50.930;18.276;2024-02-14T08:22:17;99634.00;;;4.17;80.85
78317;BME280;67572;50.930;18.276;2024-02-14T08:25:20;99630.66;;;4.37;80.60
78317;BME280;67572;50.930;18.276;2024-02-14T08:28:24;99625.81;;;4.50;79.81
78317;BME280;67572;50.930;18.276;2024-02-14T08:31:27;99633.84;;;4.47;80.25
78317;BME280;67572;50.930;18.276;2024-02-14T08:34:30;99635.50;;;4.73;79.95
78317;BME280;67572;50.930;18.276;2024-02-14T08:37:35;99634.16;;;4.86;80.55
78317;BME280;67572;50.930;18.276;2024-02-14T08:40:40;99640.50;;;4.32;79.69
78317;BME280;67572;50.930;18.276;2024-02-14T08:43:44;99641.56;;;4.52;79.43
78317;BME280;67572;50.930;18.276;2024-02-14T08:46:50;99626.47;;;4.80;79.31
78317;BME280;67572;50.930;18.276;2024-02-14T08:49:54;99624.06;;;4.74;79.02
78317;BME280;67572;50.930;18.276;2024-02-14T08:52:59;99623.19;;;4.73;79.16
78317;BME280;67572;50.930;18.276;2024-02-14T08:56:03;99625.88;;;4.95;78.86
78317;BME280;67572;50.930;18.276;2024-02-14T08:59:07;99624.75;;;5.03;77.76
78317;BME280;67572;50.930;18.276;2024-02-14T09:02:10;99624.31;;;4.91;78.06
78317;BME280;67572;50.930;18.276;2024-02-14T09:05:13;99614.63;;;5.37;76.67
78317;BME280;67572;50.930;18.276;2024-02-14T09:08:20;99620.84;;;5.35;77.00
78317;BME280;67572;50.930;18.276;2024-02-14T09:11:23;99616.66;;;5.07;77.37
78317;BME280;67572;50.930;18.276;2024-02-14T09:14:27;99614.47;;;5.40;77.28
78317;BME280;67572;50.930;18.276;2024-02-14T09:17:31;99619.13;;;5.55;77.15
78317;BME280;67572;50.930;18.276;2024-02-14T09:20:34;99615.94;;;5.25;76.68
78317;BME280;67572;50.930;18.276;2024-02-14T09:23:41;99616.25;;;5.62;75.92
78317;BME280;67572;50.930;18.276;2024-02-14T09:26:44;99622.31;;;5.64;75.59
78317;BME280;67572;50.930;18.276;2024-02-14T09:29:48;99621.22;;;5.69;75.59
78317;BME280;67572;50.930;18.276;2024-02-14T09:32:51;99619.06;;;6.01;75.26
78317;BME280;67572;50.930;18.276;2024-02-14T09:35:54;99611.25;;;6.59;73.63
78317;BME280;67572;50.930;18.276;2024-02-14T09:38:59;99599.56;;;6.83;72.48
78317;BME280;67572;50.930;18.276;2024-02-14T09:42:08;99606.13;;;6.93;71.46
78317;BME280;67572;50.930;18.276;2024-02-14T09:45:12;99606.06;;;6.76;70.54
78317;BME280;67572;50.930;18.276;2024-02-14T09:48:23;99609.56;;;6.77;69.82
78317;BME280;67572;50.930;18.276;2024-02-14T09:51:29;99606.69;;;7.00;70.44
78317;BME280;67572;50.930;18.276;2024-02-14T09:54:34;99598.44;;;6.89;69.31
78317;BME280;67572;50.930;18.276;2024-02-14T09:57:42;99600.34;;;7.23;68.41
78317;BME280;67572;50.930;18.276;2024-02-14T10:00:45;99593.38;;;7.03;68.83
78317;BME280;67572;50.930;18.276;2024-02-14T10:03:49;99590.72;;;7.58;67.85
78317;BME280;67572;50.930;18.276;2024-02-14T10:06:53;99590.19;;;7.14;66.54
78317;BME280;67572;50.930;18.276;2024-02-14T10:10:05;99591.91;;;7.15;66.47
78317;BME280;67572;50.930;18.276;2024-02-14T10:13:09;99584.34;;;7.26;65.43
78317;BME280;67572;50.930;18.276;2024-02-14T10:16:13;99583.97;;;7.34;65.66
78317;BME280;67572;50.930;18.276;2024-02-14T10:19:16;99581.81;;;7.42;66.28
78317;BME280;67572;50.930;18.276;2024-02-14T10:22:20;99584.81;;;7.88;64.56
78317;BME280;67572;50.930;18.276;2024-02-14T10:25:25;99573.06;;;7.76;64.16
78317;BME280;67572;50.930;18.276;2024-02-14T10:28:28;99566.59;;;7.82;64.97
78317;BME280;67572;50.930;18.276;2024-02-14T10:31:44;99571.50;;;7.72;64.13
78317;BME280;67572;50.930;18.276;2024-02-14T10:34:47;99559.50;;;7.82;64.14
78317;BME280;67572;50.930;18.276;2024-02-14T10:37:51;99556.69;;;8.20;63.85
78317;BME280;67572;50.930;18.276;2024-02-14T10:40:58;99556.44;;;8.42;62.83
78317;BME280;67572;50.930;18.276;2024-02-14T10:44:03;99558.78;;;8.13;62.13
78317;BME280;67572;50.930;18.276;2024-02-14T10:47:10;99558.28;;;8.57;61.81
78317;BME280;67572;50.930;18.276;2024-02-14T10:50:18;99560.72;;;8.77;61.18
78317;BME280;67572;50.930;18.276;2024-02-14T10:53:25;99556.13;;;8.48;61.52
78317;BME280;67572;50.930;18.276;2024-02-14T10:56:34;99555.75;;;8.71;61.02
78317;BME280;67572;50.930;18.276;2024-02-14T10:59:41;99560.66;;;9.26;60.66
78317;BME280;67572;50.930;18.276;2024-02-14T11:02:47;99555.88;;;9.17;60.14
78317;BME280;67572;50.930;18.276;2024-02-14T11:05:53;99543.03;;;8.78;60.07
78317;BME280;67572;50.930;18.276;2024-02-14T11:09:04;99538.16;;;9.02;59.36
78317;BME280;67572;50.930;18.276;2024-02-14T11:12:11;99537.81;;;9.24;59.19
78317;BME280;67572;50.930;18.276;2024-02-14T11:15:17;99537.66;;;9.57;59.27
78317;BME280;67572;50.930;18.276;2024-02-14T11:18:25;99538.34;;;9.60;56.99
78317;BME280;67572;50.930;18.276;2024-02-14T11:21:29;99532.19;;;9.44;57.81
78317;BME280;67572;50.930;18.276;2024-02-14T11:24:36;99528.38;;;9.18;58.09
78317;BME280;67572;50.930;18.276;2024-02-14T11:27:45;99526.16;;;9.10;58.26
78317;BME280;67572;50.930;18.276;2024-02-14T11:30:48;99517.78;;;9.18;55.02
78317;BME280;67572;50.930;18.276;2024-02-14T11:33:51;99512.91;;;9.10;53.71
78317;BME280;67572;50.930;18.276;2024-02-14T11:36:55;99521.34;;;9.33;55.44
78317;BME280;67572;50.930;18.276;2024-02-14T11:39:59;99507.06;;;9.65;54.81
78317;BME280;67572;50.930;18.276;2024-02-14T11:43:11;99509.41;;;9.10;54.17
78317;BME280;67572;50.930;18.276;2024-02-14T11:46:16;99511.69;;;9.62;54.23
78317;BME280;67572;50.930;18.276;2024-02-14T11:49:20;99516.00;;;9.49;53.28
78317;BME280;67572;50.930;18.276;2024-02-14T11:52:23;99506.50;;;9.14;54.45
78317;BME280;67572;50.930;18.276;2024-02-14T11:55:27;99514.47;;;9.60;52.98
78317;BME280;67572;50.930;18.276;2024-02-14T11:58:32;99504.75;;;9.89;52.85
78317;BME280;67572;50.930;18.276;2024-02-14T12:01:37;99503.84;;;9.44;52.92
78317;BME280;67572;50.930;18.276;2024-02-14T12:04:41;99494.28;;;9.72;52.13
78317;BME280;67572;50.930;18.276;2024-02-14T12:07:44;99492.31;;;9.76;51.71
78317;BME280;67572;50.930;18.276;2024-02-14T12:10:48;99489.03;;;10.00;52.39
78317;BME280;67572;50.930;18.276;2024-02-14T12:13:54;99494.97;;;9.45;51.74
78317;BME280;67572;50.930;18.276;2024-02-14T12:16:59;99493.28;;;10.03;51.74
78317;BME280;67572;50.930;18.276;2024-02-14T12:20:11;99486.88;;;9.63;52.62
78317;BME280;67572;50.930;18.276;2024-02-14T12:23:18;99496.72;;;9.31;52.43
78317;BME280;67572;50.930;18.276;2024-02-14T12:26:23;99489.31;;;9.66;50.61
78317;BME280;67572;50.930;18.276;2024-02-14T12:29:27;99482.69;;;9.73;49.41
78317;BME280;67572;50.930;18.276;2024-02-14T12:32:31;99484.00;;;9.66;48.39
78317;BME280;67572;50.930;18.276;2024-02-14T12:35:35;99487.25;;;9.71;48.82
78317;BME280;67572;50.930;18.276;2024-02-14T12:38:44;99477.44;;;9.87;49.37
78317;BME280;67572;50.930;18.276;2024-02-14T12:41:47;99471.72;;;9.79;48.69
78317;BME280;67572;50.930;18.276;2024-02-14T12:44:54;99471.31;;;9.71;49.51
78317;BME280;67572;50.930;18.276;2024-02-14T12:47:57;99479.75;;;10.08;49.67
78317;BME280;67572;50.930;18.276;2024-02-14T12:51:01;99473.50;;;10.51;49.96
78317;BME280;67572;50.930;18.276;2024-02-14T12:54:05;99465.53;;;10.51;48.99
78317;BME280;67572;50.930;18.276;2024-02-14T12:57:09;99462.59;;;10.27;50.55
78317;BME280;67572;50.930;18.276;2024-02-14T13:00:17;99461.06;;;9.65;51.79
78317;BME280;67572;50.930;18.276;2024-02-14T13:03:21;99460.38;;;9.91;51.52
78317;BME280;67572;50.930;18.276;2024-02-14T13:06:25;99459.66;;;9.73;51.84
78317;BME280;67572;50.930;18.276;2024-02-14T13:09:29;99460.28;;;10.07;51.85
78317;BME280;67572;50.930;18.276;2024-02-14T13:12:33;99459.53;;;10.34;51.62
78317;BME280;67572;50.930;18.276;2024-02-14T13:15:37;99464.06;;;10.17;52.07
78317;BME280;67572;50.930;18.276;2024-02-14T13:18:42;99458.03;;;10.30;50.69
78317;BME280;67572;50.930;18.276;2024-02-14T13:21:45;99460.38;;;10.48;50.78
78317;BME280;67572;50.930;18.276;2024-02-14T13:24:50;99458.38;;;10.09;51.38
78317;BME280;67572;50.930;18.276;2024-02-14T13:27:53;99453.06;;;10.09;51.19
78317;BME280;67572;50.930;18.276;2024-02-14T13:30:58;99454.69;;;10.54;51.47
78317;BME280;67572;50.930;18.276;2024-02-14T13:34:02;99457.06;;;10.16;51.95
78317;BME280;67572;50.930;18.276;2024-02-14T13:37:07;99455.44;;;9.99;51.04
78317;BME280;67572;50.930;18.276;2024-02-14T13:40:11;99453.91;;;9.95;51.19
78317;BME280;67572;50.930;18.276;2024-02-14T13:43:14;99448.97;;;10.04;51.53
78317;BME280;67572;50.930;18.276;2024-02-14T13:46:21;99446.47;;;10.31;50.94
78317;BME280;67572;50.930;18.276;2024-02-14T13:49:24;99443.66;;;10.04;51.45
78317;BME280;67572;50.930;18.276;2024-02-14T13:52:28;99446.81;;;10.10;50.95
78317;BME280;67572;50.930;18.276;2024-02-14T13:55:32;99445.38;;;9.76;51.55
78317;BME280;67572;50.930;18.276;2024-02-14T13:58:36;99444.72;;;10.15;51.57
78317;BME280;67572;50.930;18.276;2024-02-14T14:01:41;99441.69;;;10.07;51.41
78317;BME280;67572;50.930;18.276;2024-02-14T14:04:45;99443.59;;;10.05;52.34
78317;BME280;67572;50.930;18.276;2024-02-14T14:07:50;99435.41;;;10.08;51.39
78317;BME280;67572;50.930;18.276;2024-02-14T14:11:00;99447.28;;;10.02;51.68
78317;BME280;67572;50.930;18.276;2024-02-14T14:14:03;99444.53;;;10.18;51.85
78317;BME280;67572;50.930;18.276;2024-02-14T14:17:08;99446.50;;;9.86;51.77
78317;BME280;67572;50.930;18.276;2024-02-14T14:20:11;99444.34;;;10.07;52.14
78317;BME280;67572;50.930;18.276;2024-02-14T14:23:15;99433.56;;;10.24;52.06
78317;BME280;67572;50.930;18.276;2024-02-14T14:26:18;99440.72;;;9.80;53.22
78317;BME280;67572;50.930;18.276;2024-02-14T14:29:22;99432.38;;;10.14;52.14
78317;BME280;67572;50.930;18.276;2024-02-14T14:32:27;99433.44;;;9.97;52.78
78317;BME280;67572;50.930;18.276;2024-02-14T14:35:30;99437.41;;;10.05;52.67
78317;BME280;67572;50.930;18.276;2024-02-14T14:38:35;99434.69;;;10.20;52.47
78317;BME280;67572;50.930;18.276;2024-02-14T14:41:40;99436.16;;;9.96;53.00
78317;BME280;67572;50.930;18.276;2024-02-14T14:44:44;99437.72;;;10.43;52.09
78317;BME280;67572;50.930;18.276;2024-02-14T14:47:49;99435.25;;;10.40;52.32
78317;BME280;67572;50.930;18.276;2024-02-14T14:50:52;99437.97;;;10.10;53.34
78317;BME280;67572;50.930;18.276;2024-02-14T14:53:56;99423.84;;;10.09;53.27
78317;BME280;67572;50.930;18.276;2024-02-14T14:56:59;99430.47;;;9.88;53.31
78317;BME280;67572;50.930;18.276;2024-02-14T15:00:08;99429.63;;;9.87;53.54
78317;BME280;67572;50.930;18.276;2024-02-14T15:03:14;99426.03;;;10.02;52.63
78317;BME280;67572;50.930;18.276;2024-02-14T15:06:17;99420.78;;;9.87;53.87
78317;BME280;67572;50.930;18.276;2024-02-14T15:09:21;99420.78;;;9.87;52.66
78317;BME280;67572;50.930;18.276;2024-02-14T15:12:24;99413.31;;;10.08;53.00
78317;BME280;67572;50.930;18.276;2024-02-14T15:15:29;99414.53;;;9.88;53.07
78317;BME280;67572;50.930;18.276;2024-02-14T15:18:34;99411.03;;;10.01;53.22
78317;BME280;67572;50.930;18.276;2024-02-14T15:21:38;99417.47;;;9.69;54.29
78317;BME280;67572;50.930;18.276;2024-02-14T15:24:41;99414.50;;;9.59;54.86
78317;BME280;67572;50.930;18.276;2024-02-14T15:27:46;99405.34;;;10.08;54.10
78317;BME280;67572;50.930;18.276;2024-02-14T15:30:56;99415.47;;;9.72;54.87
78317;BME280;67572;50.930;18.276;2024-02-14T15:34:19;99414.53;;;10.02;53.73
78317;BME280;67572;50.930;18.276;2024-02-14T15:37:22;99416.06;;;9.92;53.71
78317;BME280;67572;50.930;18.276;2024-02-14T15:40:25;99405.44;;;10.06;53.40
78317;BME280;67572;50.930;18.276;2024-02-14T15:43:29;99407.34;;;9.76;54.28
78317;BME280;67572;50.930;18.276;2024-02-14T15:46:34;99406.75;;;9.70;54.45
78317;BME280;67572;50.930;18.276;2024-02-14T15:49:38;99407.00;;;9.52;55.54
78317;BME280;67572;50.930;18.276;2024-02-14T15:52:42;99404.63;;;9.47;55.20
78317;BME280;67572;50.930;18.276;2024-02-14T15:55:46;99408.94;;;9.34;57.30
78317;BME280;67572;50.930;18.276;2024-02-14T15:58:50;99416.69;;;9.23;56.98
78317;BME280;67572;50.930;18.276;2024-02-14T16:01:53;99415.00;;;9.36;57.67
78317;BME280;67572;50.930;18.276;2024-02-14T16:04:59;99418.56;;;9.21;57.87
78317;BME280;67572;50.930;18.276;2024-02-14T16:08:05;99414.06;;;9.37;57.68
78317;BME280;67572;50.930;18.276;2024-02-14T16:11:08;99422.63;;;9.42;57.83
78317;BME280;67572;50.930;18.276;2024-02-14T16:14:12;99423.66;;;9.09;58.68
78317;BME280;67572;50.930;18.276;2024-02-14T16:17:18;99413.03;;;9.39;57.62
78317;BME280;67572;50.930;18.276;2024-02-14T16:20:23;99425.88;;;9.17;58.44
78317;BME280;67572;50.930;18.276;2024-02-14T16:23:27;99427.56;;;9.18;58.35